Time;durP1;ratioP1;P1;durP2;ratioP2;P2;SDS_P1;SDS_P2;PMS_P1;PMS_P2;Temp;Humidity;BMP_temperature;BMP_pressure;BME280_temperature;BME280_humidity;BME280_pressure;Samples;Min_cycle;Max_cycle;Signal;HPM_P1;HPM_P2
2022/04/17 00:00:14;;;;;;;53.25;23.47;;;;;;;1.20;61.52;102184.03;1678475;85;20995;-69
2022/04/17 00:02:42;;;;;;;48.60;22.27;;;;;;;1.16;61.66;102192.50;1659365;85;21048;-69
2022/04/17 00:05:08;;;;;;;64.20;24.75;;;;;;;1.07;61.77;102182.41;1658821;85;21532;-69
2022/04/17 00:07:35;;;;;;;58.83;24.52;;;;;;;1.00;61.95;102184.90;1650394;87;21143;-69
2022/04/17 00:10:01;;;;;;;97.78;40.48;;;;;;;0.93;62.08;102188.70;1650677;86;21046;-69
2022/04/17 00:12:27;;;;;;;73.20;31.57;;;;;;;0.87;62.23;102189.83;1653270;85;21024;-69
2022/04/17 00:14:57;;;;;;;89.97;36.68;;;;;;;0.78;62.38;102187.56;1651007;86;21146;-69
2022/04/17 00:17:23;;;;;;;77.40;33.85;;;;;;;0.76;62.55;102193.80;1651252;85;21063;-69
2022/04/17 00:19:49;;;;;;;79.37;33.55;;;;;;;0.75;62.68;102194.72;1666201;85;21164;-69
2022/04/17 00:22:15;;;;;;;69.35;31.23;;;;;;;0.72;62.83;102192.22;1658470;85;21009;-69
2022/04/17 00:24:42;;;;;;;63.08;27.75;;;;;;;0.67;62.96;102204.21;1652596;85;21551;-69
2022/04/17 00:27:11;;;;;;;53.40;24.55;;;;;;;0.65;63.10;102208.69;1651333;85;21567;-69
2022/04/17 00:29:37;;;;;;;44.08;21.10;;;;;;;0.64;63.25;102207.42;1650956;87;21048;-69
2022/04/17 00:32:05;;;;;;;50.05;27.07;;;;;;;0.57;63.35;102211.21;1651121;87;21130;-69
2022/04/17 00:34:31;;;;;;;46.20;23.57;;;;;;;0.55;63.46;102211.74;1652118;85;21007;-69
2022/04/17 00:37:00;;;;;;;61.23;30.92;;;;;;;0.54;63.60;102210.02;1655854;85;21589;-68
2022/04/17 00:39:27;;;;;;;67.50;31.27;;;;;;;0.50;63.71;102204.91;1663964;85;21019;-68
2022/04/17 00:41:54;;;;;;;50.38;25.37;;;;;;;0.50;63.82;102200.97;1660856;86;21522;-68
2022/04/17 00:44:20;;;;;;;52.55;23.70;;;;;;;0.49;63.95;102198.42;1661026;85;21266;-68
2022/04/17 00:46:46;;;;;;;50.98;24.80;;;;;;;0.48;64.04;102194.94;1659452;85;21027;-68
2022/04/17 00:49:12;;;;;;;58.13;25.55;;;;;;;0.44;64.12;102197.28;1659241;86;21066;-68
2022/04/17 00:51:38;;;;;;;73.17;31.10;;;;;;;0.41;64.23;102198.72;1660530;85;21060;-68
2022/04/17 00:54:06;;;;;;;65.35;29.18;;;;;;;0.35;64.34;102192.38;1661744;84;21048;-68
2022/04/17 00:56:32;;;;;;;70.78;29.12;;;;;;;0.30;64.44;102193.04;1661062;85;21163;-68
2022/04/17 00:58:58;;;;;;;80.15;33.45;;;;;;;0.28;64.57;102190.91;1667602;85;21057;-68
2022/04/17 01:01:24;;;;;;;63.52;27.90;;;;;;;0.26;64.65;102188.83;1682153;83;21022;-68
2022/04/17 01:03:51;;;;;;;48.20;22.45;;;;;;;0.24;64.77;102182.80;1669402;85;21056;-68
2022/04/17 01:06:17;;;;;;;44.65;19.73;;;;;;;0.23;64.85;102175.83;1660367;85;21553;-68
2022/04/17 01:08:43;;;;;;;60.60;27.35;;;;;;;0.22;64.95;102174.12;1660560;85;21795;-68
2022/04/17 01:11:11;;;;;;;38.98;19.55;;;;;;;0.20;65.03;102171.16;1660253;84;21588;-68
2022/04/17 01:13:39;;;;;;;48.28;24.15;;;;;;;0.16;65.14;102170.43;1657531;86;21097;-68
2022/04/17 01:16:06;;;;;;;60.28;25.62;;;;;;;0.14;65.24;102172.24;1664358;86;21624;-68
2022/04/17 01:18:56;;;;;;;59.77;26.97;;;;;;;0.11;65.35;102171.05;1668090;85;21014;-68
2022/04/17 01:21:23;;;;;;;61.68;29.10;;;;;;;0.10;65.43;102174.61;1667680;84;21411;-68
2022/04/17 01:29:19;;;;;;;62.08;25.85;;;;;;;0.03;65.75;102177.08;1660963;85;21081;-68
2022/04/17 01:31:46;;;;;;;60.78;26.50;;;;;;;0.00;65.85;102181.95;1660807;86;21813;-68
2022/04/17 01:34:16;;;;;;;52.78;24.05;;;;;;;-0.03;65.97;102183.84;1661171;85;21349;-68
2022/04/17 01:36:46;;;;;;;66.92;26.25;;;;;;;-0.03;66.07;102180.77;1661311;84;21010;-68
2022/04/17 01:39:12;;;;;;;55.70;25.15;;;;;;;-0.05;66.13;102183.92;1660476;86;21070;-68
2022/04/17 01:41:38;;;;;;;60.03;24.00;;;;;;;-0.10;66.23;102181.05;1660377;86;21007;-68
2022/04/17 01:44:05;;;;;;;56.33;24.02;;;;;;;-0.16;66.36;102177.37;1660762;86;21033;-68
2022/04/17 01:46:32;;;;;;;54.40;22.87;;;;;;;-0.15;66.46;102185.64;1660817;85;21675;-68
2022/04/17 01:48:58;;;;;;;51.18;21.15;;;;;;;-0.17;66.54;102183.52;1660132;85;21041;-68
2022/04/17 01:51:24;;;;;;;51.20;22.52;;;;;;;-0.15;66.65;102189.57;1660679;86;21017;-68
2022/04/17 01:53:50;;;;;;;47.43;22.52;;;;;;;-0.13;66.74;102183.80;1660563;86;20997;-68
2022/04/17 01:56:16;;;;;;;50.65;22.82;;;;;;;-0.15;66.83;102180.39;1659578;86;20994;-68
2022/04/17 01:58:42;;;;;;;61.55;25.43;;;;;;;-0.16;66.93;102182.61;1671619;85;21159;-68
2022/04/17 02:01:08;;;;;;;51.48;24.23;;;;;;;-0.16;67.01;102185.23;1675570;84;21013;-68
2022/04/17 02:03:34;;;;;;;48.58;22.50;;;;;;;-0.16;67.08;102185.23;1667464;84;21014;-68
2022/04/17 02:06:00;;;;;;;54.83;23.25;;;;;;;-0.18;67.17;102189.69;1663646;82;20998;-68
2022/04/17 02:08:31;;;;;;;52.55;22.58;;;;;;;-0.19;67.22;102190.59;1676160;83;21044;-68
2022/04/17 02:10:57;;;;;;;55.33;22.60;;;;;;;-0.21;67.29;102187.19;1661027;85;21062;-68
2022/04/17 02:13:23;;;;;;;46.88;21.93;;;;;;;-0.22;67.38;102187.64;1660361;86;21017;-68
2022/04/17 02:15:53;;;;;;;43.23;21.45;;;;;;;-0.24;67.43;102184.66;1660617;84;21065;-68
2022/04/17 02:18:20;;;;;;;41.75;19.67;;;;;;;-0.27;67.47;102183.02;1663703;84;21010;-68
2022/04/17 02:20:50;;;;;;;43.17;20.90;;;;;;;-0.28;67.56;102177.84;1660522;86;21518;-68
2022/04/17 02:23:16;;;;;;;44.42;19.25;;;;;;;-0.31;67.62;102174.86;1660987;86;21169;-68
2022/04/17 02:25:42;;;;;;;54.40;23.42;;;;;;;-0.33;67.69;102171.91;1659952;85;21047;-68
2022/04/17 02:28:08;;;;;;;56.58;25.00;;;;;;;-0.35;67.74;102178.98;1660216;86;21018;-68
2022/04/17 02:30:34;;;;;;;53.73;25.40;;;;;;;-0.37;67.83;102172.92;1660535;86;21062;-68
2022/04/17 02:33:00;;;;;;;47.67;23.02;;;;;;;-0.38;67.91;102176.45;1660821;86;21038;-68
2022/04/17 02:35:26;;;;;;;58.33;24.27;;;;;;;-0.39;67.96;102169.52;1660309;85;21184;-68
2022/04/17 02:37:52;;;;;;;56.13;24.52;;;;;;;-0.39;68.05;102174.77;1661975;84;21045;-68
2022/04/17 02:40:18;;;;;;;48.40;21.85;;;;;;;-0.43;68.12;102174.02;1670672;84;21029;-68
2022/04/17 02:42:44;;;;;;;49.13;22.62;;;;;;;-0.47;68.18;102167.62;1670127;85;20926;-68
2022/04/17 02:45:10;;;;;;;45.75;20.40;;;;;;;-0.47;68.25;102168.94;1669871;86;21156;-68
2022/04/17 02:47:46;;;;;;;36.88;19.12;;;;;;;-0.47;68.34;102158.45;1659963;86;21888;-68
2022/04/17 02:50:15;;;;;;;33.20;17.77;;;;;;;-0.47;68.40;102163.70;1650587;86;20995;-68
2022/04/17 02:52:42;;;;;;;63.90;26.13;;;;;;;-0.48;68.47;102156.73;1633512;87;21536;-68
2022/04/17 02:55:08;;;;;;;51.63;25.23;;;;;;;-0.54;68.51;102158.69;1633050;87;21957;-68
2022/04/17 02:57:35;;;;;;;58.58;25.32;;;;;;;-0.58;68.58;102158.40;1605270;89;21596;-68
2022/04/17 03:00:01;;;;;;;75.20;32.05;;;;;;;-0.61;68.65;102159.83;1632717;87;21297;-68
2022/04/17 03:07:58;;;;;;;61.40;28.75;;;;;;;-0.64;68.87;102169.56;1664328;84;21136;-69
2022/04/17 03:10:24;;;;;;;66.12;29.40;;;;;;;-0.64;68.92;102163.01;1666696;84;21525;-69
2022/04/17 03:12:50;;;;;;;60.33;30.80;;;;;;;-0.63;69.01;102162.94;1665696;86;21752;-69
2022/04/17 03:15:16;;;;;;;60.00;27.40;;;;;;;-0.64;69.07;102165.18;1665745;86;21041;-69
2022/04/17 03:17:43;;;;;;;42.17;22.13;;;;;;;-0.66;69.13;102164.81;1665660;86;21082;-69
2022/04/17 03:20:10;;;;;;;43.65;22.73;;;;;;;-0.69;69.18;102159.23;1665699;86;21522;-69
2022/04/17 03:22:36;;;;;;;61.83;28.57;;;;;;;-0.66;69.24;102163.05;1665763;86;21077;-69
2022/04/17 03:25:04;;;;;;;60.52;27.90;;;;;;;-0.67;69.28;102166.57;1665246;86;21102;-68
2022/04/17 03:27:30;;;;;;;64.50;29.60;;;;;;;-0.70;69.36;102162.75;1665817;85;21013;-69
2022/04/17 03:29:56;;;;;;;59.50;27.52;;;;;;;-0.70;69.42;102162.75;1666010;85;20991;-69
2022/04/17 03:32:21;;;;;;;61.13;25.85;;;;;;;-0.73;69.47;102160.25;1665823;86;20985;-69
2022/04/17 03:34:47;;;;;;;57.15;24.47;;;;;;;-0.76;69.55;102164.30;1640268;86;21698;-69
2022/04/17 03:37:16;;;;;;;50.20;24.72;;;;;;;-0.79;69.58;102172.72;1632674;87;21352;-69
2022/04/17 03:39:43;;;;;;;51.00;24.15;;;;;;;-0.81;69.64;102162.28;1643148;86;21533;-68
2022/04/17 03:42:09;;;;;;;44.50;21.70;;;;;;;-0.82;69.71;102162.35;1637265;87;21106;-68
2022/04/17 03:44:35;;;;;;;49.35;24.92;;;;;;;-0.84;69.74;102165.01;1617889;88;21568;-68
2022/04/17 03:47:01;;;;;;;55.75;26.05;;;;;;;-0.83;69.78;102166.73;1643875;87;21058;-68
2022/04/17 03:49:29;;;;;;;52.55;24.65;;;;;;;-0.86;69.83;102160.74;1643808;87;21162;-68
2022/04/17 03:51:55;;;;;;;45.25;21.93;;;;;;;-0.86;69.89;102161.61;1643715;87;21051;-68
2022/04/17 03:54:21;;;;;;;46.53;23.62;;;;;;;-0.82;69.94;102165.83;1641847;87;21021;-68
2022/04/17 03:56:47;;;;;;;50.78;24.77;;;;;;;-0.82;70.00;102168.45;1632475;87;20906;-68
2022/04/17 03:59:14;;;;;;;48.35;23.02;;;;;;;-0.82;70.05;102161.91;1632242;88;22445;-69
2022/04/17 04:01:40;;;;;;;36.58;19.70;;;;;;;-0.84;70.08;102162.84;1632321;86;21188;-69
2022/04/17 04:04:06;;;;;;;36.20;19.45;;;;;;;-0.85;70.11;102160.70;1632125;88;21073;-69
2022/04/17 04:06:33;;;;;;;41.48;20.77;;;;;;;-0.86;70.15;102158.98;1646486;87;21136;-69
2022/04/17 04:08:59;;;;;;;48.70;20.90;;;;;;;-0.84;70.22;102157.60;1647819;87;21080;-68
2022/04/17 04:11:26;;;;;;;36.08;19.05;;;;;;;-0.81;70.28;102154.42;1679556;84;21064;-69
2022/04/17 04:13:54;;;;;;;39.78;20.52;;;;;;;-0.77;70.33;102150.79;1678602;85;21959;-69
2022/04/17 04:16:20;;;;;;;42.98;22.75;;;;;;;-0.68;70.38;102149.17;1675406;85;21051;-69
2022/04/17 04:18:46;;;;;;;44.48;23.85;;;;;;;-0.58;70.40;102145.30;1631677;87;21068;-68
2022/04/17 04:21:12;;;;;;;47.58;24.02;;;;;;;-0.52;70.47;102149.45;1632387;87;21071;-68
2022/04/17 04:23:39;;;;;;;50.95;24.12;;;;;;;-0.46;70.51;102148.38;1632438;87;21355;-69
2022/04/17 04:26:05;;;;;;;53.08;27.02;;;;;;;-0.36;70.56;102145.81;1647057;85;21447;-69
2022/04/17 04:28:36;;;;;;;52.85;25.97;;;;;;;-0.33;70.58;102143.08;1667862;86;20969;-69
2022/04/17 04:31:10;;;;;;;56.65;27.22;;;;;;;-0.32;70.64;102143.03;1668029;86;21045;-69
2022/04/17 04:33:39;;;;;;;65.78;31.17;;;;;;;-0.24;70.71;102138.78;1668169;86;21498;-69
2022/04/17 04:36:06;;;;;;;63.42;30.95;;;;;;;-0.12;70.79;102135.70;1668103;86;21044;-69
2022/04/17 04:38:33;;;;;;;67.90;31.68;;;;;;;0.00;70.76;102126.06;1666050;85;21230;-69
2022/04/17 04:40:59;;;;;;;66.15;35.55;;;;;;;0.11;70.78;102133.02;1675194;85;21073;-69
2022/04/17 04:43:26;;;;;;;72.82;36.58;;;;;;;0.22;70.87;102122.96;1671006;85;21124;-69
2022/04/17 04:46:07;;;;;;;72.87;33.42;;;;;;;0.39;70.90;102121.81;1643793;87;21021;-69
2022/04/17 04:51:25;;;;;;;101.10;45.65;;;;;;;0.54;70.88;102128.66;1656596;85;21197;-69
2022/04/17 04:53:51;;;;;;;89.32;42.03;;;;;;;0.53;70.92;102123.05;1639989;86;21081;-69
2022/04/17 04:56:17;;;;;;;80.12;38.67;;;;;;;0.65;70.96;102130.39;1624301;88;21070;-69
2022/04/17 04:58:43;;;;;;;83.95;39.95;;;;;;;1.04;71.05;102127.38;1634900;85;21065;-69
2022/04/17 05:01:11;;;;;;;79.17;41.33;;;;;;;1.65;71.17;102127.27;1643817;87;21096;-69
2022/04/17 05:03:37;;;;;;;82.70;40.85;;;;;;;2.29;71.03;102124.59;1644067;87;21458;-69
2022/04/17 05:06:03;;;;;;;74.22;39.33;;;;;;;2.67;70.79;102119.23;1650077;87;20982;-69
2022/04/17 05:08:29;;;;;;;81.12;42.40;;;;;;;2.83;70.67;102114.87;1651042;86;21090;-69
2022/04/17 05:10:55;;;;;;;82.02;40.35;;;;;;;2.97;70.60;102115.88;1651118;87;20998;-69
2022/04/17 05:13:21;;;;;;;74.37;39.85;;;;;;;3.13;70.42;102115.91;1648877;86;21028;-69
2022/04/17 05:15:47;;;;;;;76.95;39.58;;;;;;;3.16;70.28;102115.78;1618325;88;21207;-70
2022/04/17 05:18:13;;;;;;;66.90;36.85;;;;;;;3.34;70.17;102106.05;1647538;86;20893;-70
2022/04/17 05:20:40;;;;;;;72.60;37.30;;;;;;;3.51;70.12;102098.94;1647767;87;21001;-70
2022/04/17 05:23:22;;;;;;;59.18;34.67;;;;;;;3.62;70.12;102100.98;1619321;87;21029;-69
2022/04/17 05:25:49;;;;;;;52.23;28.77;;;;;;;3.87;70.13;102108.41;1612621;87;21008;-70
2022/04/17 05:28:16;;;;;;;29.82;16.50;;;;;;;4.19;70.07;102103.93;1650963;87;21079;-70
2022/04/17 05:30:42;;;;;;;26.42;17.70;;;;;;;4.58;69.96;102102.10;1650517;86;21009;-70
2022/04/17 05:33:09;;;;;;;23.47;13.40;;;;;;;4.98;69.79;102104.09;1649686;86;21591;-70
2022/04/17 05:35:35;;;;;;;19.90;13.08;;;;;;;5.43;69.60;102100.43;1649914;87;21640;-70
2022/04/17 05:38:01;;;;;;;18.50;12.47;;;;;;;5.81;69.42;102093.58;1651120;86;21535;-70
2022/04/17 05:40:28;;;;;;;21.68;12.68;;;;;;;6.13;69.34;102098.16;1675400;84;21242;-70
2022/04/17 05:42:56;;;;;;;20.60;15.20;;;;;;;6.49;69.13;102095.75;1680407;85;21036;-70
2022/04/17 05:45:22;;;;;;;23.73;16.80;;;;;;;6.45;68.96;102096.90;1652972;86;21060;-70
2022/04/17 05:47:48;;;;;;;26.65;17.02;;;;;;;6.51;68.74;102096.48;1653406;86;21101;-70
2022/04/17 05:50:14;;;;;;;31.02;16.35;;;;;;;6.73;68.43;102098.55;1653481;86;21061;-70
2022/04/17 05:52:41;;;;;;;32.33;17.32;;;;;;;7.00;68.04;102098.48;1653155;86;21166;-70
2022/04/17 05:55:09;;;;;;;31.48;16.30;;;;;;;7.19;67.69;102096.25;1606684;86;21010;-70
2022/04/17 05:57:35;;;;;;;26.48;15.75;;;;;;;7.14;67.42;102096.20;1652277;86;21065;-70
2022/04/17 06:00:08;;;;;;;30.35;18.65;;;;;;;7.08;67.23;102092.63;1650887;86;21052;-70
2022/04/17 06:02:33;;;;;;;38.00;24.65;;;;;;;7.00;66.91;102091.86;1678505;84;21084;-71
2022/04/17 06:04:59;;;;;;;36.42;18.95;;;;;;;7.10;66.62;102093.39;1678313;84;21034;-71
2022/04/17 06:07:26;;;;;;;26.62;18.07;;;;;;;7.32;66.28;102089.12;1683713;83;21518;-71
2022/04/17 06:09:52;;;;;;;29.98;16.05;;;;;;;7.65;65.90;102085.04;1680049;84;21015;-71
2022/04/17 06:12:18;;;;;;;22.50;13.80;;;;;;;7.98;65.52;102087.94;1679296;85;20989;-71
2022/04/17 06:14:44;;;;;;;24.82;15.15;;;;;;;8.13;65.25;102081.47;1678645;85;20908;-71
2022/04/17 06:17:13;;;;;;;22.35;13.98;;;;;;;8.35;64.87;102086.94;1686727;83;21089;-71
2022/04/17 06:19:38;;;;;;;18.12;12.15;;;;;;;8.59;64.62;102084.24;1691333;83;21025;-71
2022/04/17 06:22:06;;;;;;;23.10;11.80;;;;;;;8.95;64.28;102091.23;1655612;85;21058;-71
2022/04/17 06:24:32;;;;;;;16.62;9.65;;;;;;;9.21;63.84;102094.55;1647782;85;21402;-71
2022/04/17 06:26:58;;;;;;;16.10;9.88;;;;;;;9.40;63.46;102088.98;1675055;85;21075;-71
2022/04/17 06:29:24;;;;;;;18.98;10.38;;;;;;;9.53;63.20;102087.03;1659371;85;21478;-71
2022/04/17 06:31:50;;;;;;;15.05;9.23;;;;;;;9.75;62.83;102081.33;1650420;85;20935;-71
2022/04/17 06:34:16;;;;;;;20.97;10.60;;;;;;;9.94;62.49;102089.55;1660263;85;21034;-71
2022/04/17 06:36:42;;;;;;;18.77;11.48;;;;;;;10.06;61.98;102082.38;1669011;84;21582;-71
2022/04/17 06:39:08;;;;;;;20.92;12.93;;;;;;;10.16;61.51;102079.34;1671675;83;21708;-71
2022/04/17 06:41:34;;;;;;;19.15;11.22;;;;;;;10.27;61.13;102078.84;1647432;87;21081;-71
2022/04/17 06:44:01;;;;;;;15.80;9.40;;;;;;;10.33;60.64;102076.98;1679308;85;21042;-71
2022/04/17 06:46:27;;;;;;;8.15;4.92;;;;;;;10.26;60.13;102074.47;1677756;85;21054;-72
2022/04/17 06:48:53;;;;;;;13.60;9.18;;;;;;;10.29;59.75;102070.69;1678963;85;20970;-71
2022/04/17 06:51:23;;;;;;;11.05;6.58;;;;;;;10.46;59.45;102068.31;1678226;85;21058;-71
2022/04/17 06:53:47;;;;;;;7.12;4.95;;;;;;;10.47;58.92;102068.68;1676062;84;21206;-71
2022/04/17 06:56:18;;;;;;;11.10;6.58;;;;;;;10.50;58.58;102060.90;1674826;85;21145;-71
2022/04/17 06:58:42;;;;;;;9.25;5.47;;;;;;;10.51;58.00;102064.78;1651490;85;21026;-71
2022/04/17 07:01:08;;;;;;;6.42;4.15;;;;;;;10.48;57.58;102066.35;1678692;84;21590;-71
2022/04/17 07:03:34;;;;;;;10.70;5.65;;;;;;;10.36;57.12;102067.39;1694250;84;21066;-71
2022/04/17 07:06:00;;;;;;;9.10;5.03;;;;;;;10.44;56.81;102062.76;1676054;84;20928;-71
2022/04/17 07:08:28;;;;;;;9.15;4.65;;;;;;;10.47;56.55;102054.49;1680349;84;20912;-71
2022/04/17 07:10:54;;;;;;;5.85;4.33;;;;;;;10.53;56.31;102058.83;1649452;85;21106;-71
2022/04/17 07:13:21;;;;;;;7.05;3.45;;;;;;;10.55;55.89;102064.05;1648384;87;21068;-71
2022/04/17 07:15:48;;;;;;;5.97;3.10;;;;;;;10.53;55.52;102053.48;1678416;83;21522;-71
2022/04/17 07:18:14;;;;;;;5.80;3.35;;;;;;;10.63;55.20;102055.36;1678380;84;21796;-71
2022/04/17 07:20:40;;;;;;;8.85;4.42;;;;;;;10.80;54.89;102060.14;1676024;83;21079;-71
2022/04/17 07:23:06;;;;;;;6.47;3.10;;;;;;;10.75;54.56;102057.86;1690796;84;21054;-71
2022/04/17 07:25:33;;;;;;;6.47;2.62;;;;;;;10.73;54.25;102056.31;1671081;85;21421;-71
2022/04/17 07:27:59;;;;;;;4.60;2.33;;;;;;;10.71;53.95;102058.23;1679758;83;21082;-71
2022/04/17 07:30:30;;;;;;;7.12;4.20;;;;;;;10.84;53.63;102048.20;1677883;85;21140;-71
2022/04/17 07:33:00;;;;;;;6.20;3.83;;;;;;;10.88;53.26;102052.31;1678310;83;21027;-72
2022/04/17 07:35:28;;;;;;;8.28;3.65;;;;;;;10.89;52.90;102045.52;1681156;83;21688;-72
2022/04/17 07:37:58;;;;;;;6.50;2.67;;;;;;;10.95;52.62;102046.31;1644405;87;21035;-72
2022/04/17 07:40:26;;;;;;;5.33;2.62;;;;;;;11.06;52.23;102049.88;1691767;83;21049;-72
2022/04/17 07:42:54;;;;;;;5.75;2.27;;;;;;;11.16;51.87;102046.28;1642546;84;21806;-72
2022/04/17 07:45:21;;;;;;;3.40;2.20;;;;;;;11.24;51.52;102049.14;1669918;82;21074;-72
2022/04/17 07:47:47;;;;;;;3.98;2.50;;;;;;;11.33;51.09;102042.98;1672125;83;21138;-72
2022/04/17 07:50:16;;;;;;;6.00;2.35;;;;;;;11.25;50.66;102040.16;1685524;82;21026;-72
2022/04/17 07:52:42;;;;;;;6.25;3.08;;;;;;;11.22;50.34;102040.43;1703980;84;21035;-72
2022/04/17 07:55:11;;;;;;;6.75;3.95;;;;;;;11.35;50.04;102041.03;1687180;84;21029;-72
2022/04/17 08:00:25;;;;;;;6.35;2.83;;;;;;;11.43;49.33;102037.18;1669840;84;21546;-72
2022/04/17 08:03:06;;;;;;;7.87;3.33;;;;;;;11.36;48.96;102036.06;1686288;83;21050;-72
2022/04/17 08:05:23;;;;;;;42.73;20.25;;;;;;;11.14;48.72;102042.91;1666259;85;21062;-72
2022/04/17 08:07:51;;;;;;;23.90;11.00;;;;;;;10.93;48.50;102042.09;1687747;84;21110;-72
2022/04/17 08:10:17;;;;;;;106.75;44.70;;;;;;;10.59;48.23;102045.95;1673061;84;21069;-71
2022/04/17 08:12:44;;;;;;;17.35;7.35;;;;;;;10.31;48.09;102045.58;1669017;85;21506;-71
2022/04/17 08:15:10;;;;;;;133.07;59.90;;;;;;;10.03;47.94;102041.66;1669501;84;21519;-72
2022/04/17 08:17:36;;;;;;;29.42;14.25;;;;;;;9.75;47.79;102044.88;1670599;84;21022;-71
2022/04/17 08:20:04;;;;;;;25.52;8.85;;;;;;;9.68;47.71;102041.50;1638552;86;21181;-72
2022/04/17 08:22:30;;;;;;;15.83;7.85;;;;;;;9.54;47.51;102039.47;1668985;84;21072;-72
2022/04/17 08:24:56;;;;;;;20.00;9.65;;;;;;;9.69;47.55;102047.20;1678744;83;21014;-71
2022/04/17 08:27:22;;;;;;;10.93;6.37;;;;;;;9.92;47.32;102036.36;1687175;83;21061;-72
2022/04/17 08:29:48;;;;;;;22.85;13.58;;;;;;;10.31;47.25;102040.25;1674878;83;21021;-72
2022/04/17 08:32:14;;;;;;;11.85;6.97;;;;;;;10.69;47.13;102036.19;1686591;83;21167;-72
2022/04/17 08:34:40;;;;;;;6.53;3.87;;;;;;;11.01;46.98;102042.29;1656039;84;21073;-72
2022/04/17 08:37:06;;;;;;;5.08;3.52;;;;;;;10.97;46.74;102035.52;1692053;83;21009;-71
2022/04/17 08:39:32;;;;;;;4.47;2.90;;;;;;;10.68;46.58;102046.50;1674917;83;21557;-72
2022/04/17 08:41:59;;;;;;;5.22;2.80;;;;;;;10.65;46.58;102038.76;1708197;83;21030;-72
2022/04/17 08:44:25;;;;;;;5.25;3.22;;;;;;;10.87;46.54;102030.63;1650816;86;21103;-72
2022/04/17 08:46:52;;;;;;;11.80;6.25;;;;;;;10.97;46.18;102026.17;1668890;84;21072;-72
2022/04/17 08:49:18;;;;;;;6.05;2.80;;;;;;;11.15;46.14;102017.91;1671872;85;21046;-72
2022/04/17 08:51:48;;;;;;;8.00;3.80;;;;;;;11.10;45.84;102016.60;1665051;85;20994;-72
2022/04/17 08:54:12;;;;;;;11.20;5.90;;;;;;;10.85;45.56;102016.55;1655780;85;21080;-72
2022/04/17 08:56:38;;;;;;;4.15;2.30;;;;;;;10.77;45.42;102021.69;1650673;86;21155;-72
2022/04/17 08:59:05;;;;;;;3.20;1.70;;;;;;;10.69;45.24;102021.03;1621780;88;21043;-72
2022/04/17 09:01:34;;;;;;;3.02;1.95;;;;;;;10.48;44.99;102017.52;1621562;86;21612;-72
2022/04/17 09:04:00;;;;;;;7.27;2.70;;;;;;;10.60;44.88;102012.46;1685878;83;21458;-72
2022/04/17 09:06:26;;;;;;;5.97;3.30;;;;;;;10.75;44.68;102008.97;1687034;83;21091;-71
2022/04/17 09:11:38;;;;;;;4.95;3.08;;;;;;;10.74;44.51;102001.94;1727747;81;21518;-71
2022/04/17 09:14:05;;;;;;;8.93;3.75;;;;;;;10.74;44.37;101991.27;1739976;81;20926;-70
2022/04/17 09:16:38;;;;;;;4.42;2.90;;;;;;;10.78;44.35;101988.20;1734480;81;21033;-70
2022/04/17 09:19:15;;;;;;;4.72;2.70;;;;;;;10.88;44.23;101981.58;1732334;81;21117;-70
2022/04/17 09:21:41;;;;;;;7.58;3.15;;;;;;;11.10;44.28;101978.73;1740046;81;21609;-70
2022/04/17 09:24:18;;;;;;;6.33;3.25;;;;;;;11.17;44.14;101973.21;1737228;81;21472;-70
2022/04/17 09:26:58;;;;;;;10.88;5.55;;;;;;;11.34;44.07;101966.38;1746123;81;21063;-71
2022/04/17 09:29:29;;;;;;;8.25;5.05;;;;;;;11.52;44.01;101966.92;1733529;81;21050;-71
2022/04/17 09:32:01;;;;;;;6.75;3.90;;;;;;;11.64;43.89;101968.14;1736042;81;21030;-71
2022/04/17 09:34:29;;;;;;;8.00;3.33;;;;;;;11.67;43.90;101969.19;1736468;81;21132;-71
2022/04/17 09:36:58;;;;;;;6.25;3.27;;;;;;;11.69;43.88;101965.87;1738705;81;21039;-72
2022/04/17 09:39:35;;;;;;;7.50;3.40;;;;;;;11.77;43.87;101964.73;1697596;83;21022;-72
2022/04/17 09:42:02;;;;;;;6.83;4.12;;;;;;;11.71;43.79;101964.81;1702034;82;21017;-71
2022/04/17 09:44:40;;;;;;;5.30;3.52;;;;;;;11.66;43.70;101959.48;1734962;82;21645;-71
2022/04/17 09:47:09;;;;;;;6.42;4.08;;;;;;;11.73;43.76;101959.30;1733056;82;21333;-72
2022/04/17 09:49:52;;;;;;;7.15;3.80;;;;;;;12.00;43.68;101955.44;1731922;82;21042;-72
2022/04/17 09:52:18;;;;;;;7.90;3.90;;;;;;;12.14;43.60;101955.02;1731773;81;21502;-72
2022/04/17 09:54:44;;;;;;;8.53;4.08;;;;;;;12.18;43.40;101945.72;1732567;82;21499;-72
2022/04/17 09:57:12;;;;;;;7.05;3.50;;;;;;;11.98;43.30;101940.05;1697708;84;20998;-71
2022/04/17 09:59:38;;;;;;;5.25;3.12;;;;;;;11.91;43.25;101945.61;1702124;82;21072;-72
2022/04/17 10:02:05;;;;;;;6.00;3.67;;;;;;;11.98;43.27;101937.38;1732782;82;21026;-72
2022/04/17 10:04:31;;;;;;;6.37;3.37;;;;;;;12.18;43.31;101931.02;1697623;84;21538;-72
2022/04/17 10:06:59;;;;;;;7.80;4.08;;;;;;;12.11;43.23;101927.22;1731740;82;21037;-72
2022/04/17 10:09:25;;;;;;;6.90;3.77;;;;;;;12.06;43.19;101921.97;1679574;84;21014;-72
2022/04/17 10:11:51;;;;;;;5.08;3.40;;;;;;;12.10;43.17;101916.20;1703757;84;21134;-72
2022/04/17 10:14:18;;;;;;;5.55;3.50;;;;;;;12.10;43.14;101914.86;1704357;84;21046;-72
2022/04/17 10:16:48;;;;;;;5.17;3.55;;;;;;;11.99;43.08;101911.00;1723886;82;21495;-72
2022/04/17 10:19:17;;;;;;;;;;;;;;;11.98;43.18;101907.47;1726692;83;21561;-72
2022/04/17 10:21:43;;;;;;;6.75;3.75;;;;;;;12.05;43.18;101914.44;1722970;83;20168;-72
2022/04/17 10:24:14;;;;;;;7.35;3.95;;;;;;;11.97;43.09;101908.94;1723398;83;21123;-72
2022/04/17 10:26:48;;;;;;;15.53;10.23;;;;;;;12.01;43.15;101907.19;1724011;83;21570;-72
2022/04/17 10:29:35;;;;;;;7.17;4.03;;;;;;;12.06;43.11;101900.08;1702593;83;21098;-72
2022/04/17 10:32:30;;;;;;;7.33;4.10;;;;;;;12.26;43.07;101905.74;1703225;83;20959;-72
2022/04/17 10:35:28;;;;;;;6.33;4.05;;;;;;;12.01;42.64;101896.98;1701504;83;21014;-72
2022/04/17 10:38:31;;;;;;;10.20;5.58;;;;;;;11.84;42.66;101896.36;1724017;82;21883;-72
2022/04/17 10:41:05;;;;;;;7.85;5.35;;;;;;;11.97;42.80;101887.55;1724313;83;20947;-72
2022/04/17 10:43:44;;;;;;;10.80;7.72;;;;;;;12.03;42.78;101882.99;1724222;83;21055;-72
2022/04/17 10:46:16;;;;;;;6.75;5.60;;;;;;;12.15;42.88;101880.49;1722110;83;21065;-72
2022/04/17 10:48:57;;;;;;;6.87;4.35;;;;;;;12.19;42.85;101880.56;1724169;83;21006;-72
2022/04/17 10:51:32;;;;;;;6.00;3.47;;;;;;;12.10;42.80;101873.41;1723825;83;21109;-72
2022/04/17 10:54:05;;;;;;;5.92;3.62;;;;;;;12.12;42.84;101871.42;1723143;81;21049;-72
2022/04/17 10:56:35;;;;;;;8.00;3.60;;;;;;;12.30;42.92;101860.33;1723885;83;21471;-72
2022/04/17 10:59:06;;;;;;;7.72;3.80;;;;;;;12.47;43.00;101852.88;1724117;83;21511;-72
2022/04/17 11:01:52;;;;;;;10.20;4.58;;;;;;;12.64;43.09;101861.11;1724080;83;21002;-72
2022/04/17 11:04:28;;;;;;;10.30;6.53;;;;;;;12.79;43.03;101855.62;1723900;83;21128;-71
2022/04/17 11:07:10;;;;;;;9.25;3.10;;;;;;;12.65;42.88;101860.13;1724072;83;21019;-71
2022/04/17 11:09:42;;;;;;;8.58;3.98;;;;;;;12.44;42.68;101857.19;1723858;81;21121;-71
2022/04/17 11:12:12;;;;;;;10.72;5.10;;;;;;;12.36;42.62;101861.08;1693846;83;21019;-71
2022/04/17 11:14:39;;;;;;;6.33;3.55;;;;;;;12.28;42.61;101862.81;1693711;83;21023;-71
2022/04/17 11:17:09;;;;;;;4.22;3.00;;;;;;;12.26;42.62;101840.20;1693681;83;21153;-72
2022/04/17 11:19:37;;;;;;;4.65;2.95;;;;;;;12.37;42.60;101841.86;1693876;83;21055;-72
2022/04/17 11:22:06;;;;;;;6.25;2.98;;;;;;;12.52;42.57;101840.41;1693431;83;21078;-72
2022/04/17 11:25:02;;;;;;;5.03;2.77;;;;;;;12.52;42.39;101835.88;1693564;83;21055;-72
2022/04/17 11:27:49;;;;;;;6.70;2.55;;;;;;;12.55;42.38;101839.27;1693594;83;21007;-72
2022/04/17 11:30:20;;;;;;;6.17;2.37;;;;;;;12.63;42.40;101835.36;1683927;84;21141;-72
2022/04/17 11:32:49;;;;;;;4.35;2.95;;;;;;;12.53;42.42;101832.22;1693518;84;20999;-71
2022/04/17 11:35:18;;;;;;;4.90;2.62;;;;;;;12.43;42.41;101830.56;1693607;83;21087;-71
2022/04/17 11:37:52;;;;;;;6.87;3.08;;;;;;;12.42;42.46;101819.02;1693570;84;21045;-72
2022/04/17 11:40:20;;;;;;;5.95;3.35;;;;;;;12.42;42.47;101816.34;1693643;83;21561;-71